Ashland, Illinois
Current Conditions -  °F | °C
As of 10:55 PM on Saturday 22 Nov 2014 (Local Time) from KIJX Reporting Station
Overcast Overcast  
Wind Chill: 12°   Ceiling: 900
Heat Index: 12°   Visibility: 10mi
Dew Point: 10°   Wind: 12mph
Humidity: 88%   Direction: 180°S
Pressure: 29.83"   Gusts: NA
Location:  39.89°N, 90.01°W
Report Text: KIJX 230455Z AUTO 18010KT 10SM OVC009 12/10 A2983 RMK AO2 T01210102
Loading
Personal Weather Stations






























Interactive Weather Map New forecast layout! Learn more

10-Day Weather Forecast

Advertisements
Track Severe Weather on mobile